This is the latest recevied weather packets stored in our database for station/object DO6WO-10. If no packets are shown the sender has not sent any weather packets the latest 10 day(s).
| Time | Temp. | Humidity | Pressure | Rain* | Wind** | Luminosity | Snow |
|---|---|---|---|---|---|---|---|
| 1777894093 | 23.33° C | 30% | 1019.4 hPa | - | - | - | - |
| 1777891393 | 22.22° C | 31% | 1019.9 hPa | - | - | - | - |
| 1777888692 | 21.67° C | 32% | 1020.3 hPa | - | - | - | - |
| 1777885995 | 22.22° C | 32% | 1020.6 hPa | - | - | - | - |
| 1777883295 | 20.56° C | 34% | 1021 hPa | - | - | - | - |
| 1777880595 | 18.33° C | 36% | 1021.6 hPa | - | - | - | - |
| 1777877895 | 15° C | 40% | 1022 hPa | - | - | - | - |
| 1777875195 | 14.44° C | 39% | 1022.2 hPa | - | - | - | - |
| 1777872495 | 12.78° C | 41% | 1022.3 hPa | - | - | - | - |
| 1777869795 | 12.78° C | 39% | 1022.3 hPa | - | - | - | - |
| 1777867095 | 12.22° C | 40% | 1022.2 hPa | - | - | - | - |
| 1777864395 | 13.33° C | 39% | 1022.4 hPa | - | - | - | - |
| 1777861694 | 13.33° C | 39% | 1022.5 hPa | - | - | - | - |
| 1777858994 | 14.44° C | 38% | 1022.3 hPa | - | - | - | - |
| 1777856340 | 13.89° C | 38% | 1022.5 hPa | - | - | - | - |
| 1777856294 | 13.89° C | 38% | 1022.5 hPa | - | - | - | - |
| 1777853594 | 15° C | 36% | 1022.6 hPa | - | - | - | - |
| 1777850925 | 15° C | 36% | 1022.9 hPa | - | - | - | - |
| 1777850894 | 15° C | 36% | 1022.9 hPa | - | - | - | - |
| 1777848194 | 16.11° C | 34% | 1022.9 hPa | - | - | - | - |
| 1777845494 | 16.11° C | 34% | 1022.7 hPa | - | - | - | - |
| 1777842812 | 17.78° C | 32% | 1022.2 hPa | - | - | - | - |
| 1777842794 | 17.78° C | 32% | 1022.2 hPa | - | - | - | - |
| 1777840094 | 17.78° C | 32% | 1021.8 hPa | - | - | - | - |
| 1777837445 | 19.44° C | 30% | 1021.1 hPa | - | - | - | - |
* Rain since midnight (hover to see other rain measurements)
** Current wind speed in m/s (hover to see current wind gust speed)